sensor_id;sensor_type;location;lat;lon;timestamp;P1;durP1;ratioP1;P2;durP2;ratioP2
42364;SDS011;28498;54.400;18.566;2022-10-16T00:01:26;140.57;;;50.15;;
42364;SDS011;28498;54.400;18.566;2022-10-16T00:03:54;138.52;;;49.30;;
42364;SDS011;28498;54.400;18.566;2022-10-16T00:06:22;138.05;;;49.25;;
42364;SDS011;28498;54.400;18.566;2022-10-16T00:08:50;133.85;;;50.33;;
42364;SDS011;28498;54.400;18.566;2022-10-16T00:11:22;131.75;;;51.88;;
42364;SDS011;28498;54.400;18.566;2022-10-16T00:13:51;133.90;;;49.58;;
42364;SDS011;28498;54.400;18.566;2022-10-16T00:16:21;142.50;;;51.30;;
42364;SDS011;28498;54.400;18.566;2022-10-16T00:18:48;128.70;;;48.65;;
42364;SDS011;28498;54.400;18.566;2022-10-16T00:21:16;127.93;;;46.10;;
42364;SDS011;28498;54.400;18.566;2022-10-16T00:23:55;116.93;;;46.13;;
42364;SDS011;28498;54.400;18.566;2022-10-16T00:26:27;118.32;;;44.42;;
42364;SDS011;28498;54.400;18.566;2022-10-16T00:28:56;120.50;;;46.33;;
42364;SDS011;28498;54.400;18.566;2022-10-16T00:31:23;116.03;;;43.95;;
42364;SDS011;28498;54.400;18.566;2022-10-16T00:33:50;110.70;;;42.05;;
42364;SDS011;28498;54.400;18.566;2022-10-16T00:36:19;119.53;;;43.08;;
42364;SDS011;28498;54.400;18.566;2022-10-16T00:38:53;103.25;;;42.03;;
42364;SDS011;28498;54.400;18.566;2022-10-16T00:41:22;110.10;;;42.72;;
42364;SDS011;28498;54.400;18.566;2022-10-16T00:43:51;103.15;;;39.38;;
42364;SDS011;28498;54.400;18.566;2022-10-16T00:49:07;100.70;;;39.58;;
42364;SDS011;28498;54.400;18.566;2022-10-16T00:51:41;92.47;;;38.47;;
42364;SDS011;28498;54.400;18.566;2022-10-16T00:54:16;90.40;;;38.58;;
42364;SDS011;28498;54.400;18.566;2022-10-16T00:56:47;95.15;;;38.20;;
42364;SDS011;28498;54.400;18.566;2022-10-16T00:59:37;81.47;;;36.70;;
42364;SDS011;28498;54.400;18.566;2022-10-16T01:02:03;86.70;;;37.13;;
42364;SDS011;28498;54.400;18.566;2022-10-16T01:04:35;82.38;;;35.60;;
42364;SDS011;28498;54.400;18.566;2022-10-16T01:12:42;68.50;;;31.02;;
42364;SDS011;28498;54.400;18.566;2022-10-16T01:20:49;68.50;;;31.20;;
42364;SDS011;28498;54.400;18.566;2022-10-16T01:28:14;64.55;;;28.15;;
42364;SDS011;28498;54.400;18.566;2022-10-16T01:30:44;55.53;;;27.02;;
42364;SDS011;28498;54.400;18.566;2022-10-16T01:33:17;57.35;;;26.73;;
42364;SDS011;28498;54.400;18.566;2022-10-16T01:35:52;54.08;;;26.58;;
42364;SDS011;28498;54.400;18.566;2022-10-16T01:38:24;51.85;;;27.30;;
42364;SDS011;28498;54.400;18.566;2022-10-16T01:41:04;52.33;;;26.13;;
42364;SDS011;28498;54.400;18.566;2022-10-16T01:43:41;46.90;;;24.88;;
42364;SDS011;28498;54.400;18.566;2022-10-16T01:46:13;45.58;;;24.70;;
42364;SDS011;28498;54.400;18.566;2022-10-16T01:48:42;44.13;;;22.92;;
42364;SDS011;28498;54.400;18.566;2022-10-16T01:51:10;43.15;;;22.92;;
42364;SDS011;28498;54.400;18.566;2022-10-16T01:53:39;42.42;;;21.30;;
42364;SDS011;28498;54.400;18.566;2022-10-16T01:56:10;37.05;;;21.75;;
42364;SDS011;28498;54.400;18.566;2022-10-16T01:58:47;39.75;;;20.73;;
42364;SDS011;28498;54.400;18.566;2022-10-16T02:01:20;35.65;;;20.10;;
42364;SDS011;28498;54.400;18.566;2022-10-16T02:03:50;36.38;;;20.33;;
42364;SDS011;28498;54.400;18.566;2022-10-16T02:06:20;41.70;;;22.02;;
42364;SDS011;28498;54.400;18.566;2022-10-16T02:08:48;35.20;;;19.77;;
42364;SDS011;28498;54.400;18.566;2022-10-16T02:11:15;33.95;;;19.30;;
42364;SDS011;28498;54.400;18.566;2022-10-16T02:13:51;35.25;;;19.05;;
42364;SDS011;28498;54.400;18.566;2022-10-16T02:16:23;33.00;;;19.95;;
42364;SDS011;28498;54.400;18.566;2022-10-16T02:19:00;33.83;;;18.88;;
42364;SDS011;28498;54.400;18.566;2022-10-16T02:24:08;29.63;;;18.20;;
42364;SDS011;28498;54.400;18.566;2022-10-16T02:26:42;27.50;;;17.20;;
42364;SDS011;28498;54.400;18.566;2022-10-16T02:31:45;31.92;;;18.05;;
42364;SDS011;28498;54.400;18.566;2022-10-16T02:34:17;32.78;;;18.75;;
42364;SDS011;28498;54.400;18.566;2022-10-16T02:36:45;28.65;;;17.80;;
42364;SDS011;28498;54.400;18.566;2022-10-16T02:39:15;33.88;;;19.60;;
42364;SDS011;28498;54.400;18.566;2022-10-16T02:41:43;35.85;;;19.73;;
42364;SDS011;28498;54.400;18.566;2022-10-16T02:44:09;36.45;;;20.23;;
42364;SDS011;28498;54.400;18.566;2022-10-16T02:46:36;37.22;;;20.25;;
42364;SDS011;28498;54.400;18.566;2022-10-16T02:49:03;36.22;;;20.92;;
42364;SDS011;28498;54.400;18.566;2022-10-16T02:51:30;32.15;;;18.55;;
42364;SDS011;28498;54.400;18.566;2022-10-16T02:53:57;37.20;;;21.20;;
42364;SDS011;28498;54.400;18.566;2022-10-16T02:56:24;34.78;;;19.23;;
42364;SDS011;28498;54.400;18.566;2022-10-16T02:58:51;36.95;;;20.42;;
42364;SDS011;28498;54.400;18.566;2022-10-16T03:01:18;37.13;;;20.33;;
42364;SDS011;28498;54.400;18.566;2022-10-16T03:03:45;39.53;;;20.67;;
42364;SDS011;28498;54.400;18.566;2022-10-16T03:06:12;36.58;;;20.25;;
42364;SDS011;28498;54.400;18.566;2022-10-16T03:08:39;40.08;;;21.50;;
42364;SDS011;28498;54.400;18.566;2022-10-16T03:11:06;40.70;;;21.98;;
42364;SDS011;28498;54.400;18.566;2022-10-16T03:13:33;42.60;;;21.45;;
42364;SDS011;28498;54.400;18.566;2022-10-16T03:16:00;45.17;;;22.88;;
42364;SDS011;28498;54.400;18.566;2022-10-16T03:18:27;40.17;;;21.75;;
42364;SDS011;28498;54.400;18.566;2022-10-16T03:20:54;42.85;;;22.55;;
42364;SDS011;28498;54.400;18.566;2022-10-16T03:23:21;47.97;;;23.50;;
42364;SDS011;28498;54.400;18.566;2022-10-16T03:25:48;42.80;;;23.02;;
42364;SDS011;28498;54.400;18.566;2022-10-16T03:28:14;49.28;;;24.17;;
42364;SDS011;28498;54.400;18.566;2022-10-16T03:30:42;46.08;;;23.30;;
42364;SDS011;28498;54.400;18.566;2022-10-16T03:33:10;50.10;;;24.50;;
42364;SDS011;28498;54.400;18.566;2022-10-16T03:35:36;47.92;;;25.10;;
42364;SDS011;28498;54.400;18.566;2022-10-16T03:38:03;44.22;;;24.00;;
42364;SDS011;28498;54.400;18.566;2022-10-16T03:40:30;46.80;;;24.95;;
42364;SDS011;28498;54.400;18.566;2022-10-16T03:43:00;42.55;;;23.15;;
42364;SDS011;28498;54.400;18.566;2022-10-16T03:45:27;44.08;;;23.63;;
42364;SDS011;28498;54.400;18.566;2022-10-16T03:47:54;43.63;;;24.00;;
42364;SDS011;28498;54.400;18.566;2022-10-16T03:50:21;43.85;;;22.80;;
42364;SDS011;28498;54.400;18.566;2022-10-16T03:52:48;37.55;;;22.08;;
42364;SDS011;28498;54.400;18.566;2022-10-16T03:55:15;40.63;;;22.52;;
42364;SDS011;28498;54.400;18.566;2022-10-16T03:57:42;38.30;;;21.50;;
42364;SDS011;28498;54.400;18.566;2022-10-16T04:00:09;37.95;;;22.60;;
42364;SDS011;28498;54.400;18.566;2022-10-16T04:02:37;33.80;;;21.00;;
42364;SDS011;28498;54.400;18.566;2022-10-16T04:05:04;36.25;;;21.80;;
42364;SDS011;28498;54.400;18.566;2022-10-16T04:07:31;32.05;;;19.88;;
42364;SDS011;28498;54.400;18.566;2022-10-16T04:09:58;36.42;;;20.42;;
42364;SDS011;28498;54.400;18.566;2022-10-16T04:12:26;35.30;;;19.75;;
42364;SDS011;28498;54.400;18.566;2022-10-16T04:14:53;34.40;;;20.52;;
42364;SDS011;28498;54.400;18.566;2022-10-16T04:17:20;31.25;;;19.85;;
42364;SDS011;28498;54.400;18.566;2022-10-16T04:19:47;32.78;;;20.25;;
42364;SDS011;28498;54.400;18.566;2022-10-16T04:22:14;34.50;;;21.23;;
42364;SDS011;28498;54.400;18.566;2022-10-16T04:24:41;28.83;;;18.13;;
42364;SDS011;28498;54.400;18.566;2022-10-16T04:27:08;31.30;;;19.42;;
42364;SDS011;28498;54.400;18.566;2022-10-16T04:29:35;33.40;;;20.58;;
42364;SDS011;28498;54.400;18.566;2022-10-16T04:32:02;31.58;;;19.45;;
42364;SDS011;28498;54.400;18.566;2022-10-16T04:34:29;28.83;;;18.42;;
42364;SDS011;28498;54.400;18.566;2022-10-16T04:36:56;32.63;;;20.10;;
42364;SDS011;28498;54.400;18.566;2022-10-16T04:39:23;30.27;;;19.67;;
42364;SDS011;28498;54.400;18.566;2022-10-16T04:41:50;36.63;;;20.95;;
42364;SDS011;28498;54.400;18.566;2022-10-16T04:44:17;32.70;;;21.40;;
42364;SDS011;28498;54.400;18.566;2022-10-16T04:46:43;36.35;;;21.25;;
42364;SDS011;28498;54.400;18.566;2022-10-16T04:49:10;33.35;;;20.48;;
42364;SDS011;28498;54.400;18.566;2022-10-16T04:51:37;36.03;;;21.42;;
42364;SDS011;28498;54.400;18.566;2022-10-16T04:54:04;33.33;;;19.52;;
42364;SDS011;28498;54.400;18.566;2022-10-16T04:56:31;35.17;;;19.27;;
42364;SDS011;28498;54.400;18.566;2022-10-16T04:58:58;38.55;;;22.55;;
42364;SDS011;28498;54.400;18.566;2022-10-16T05:01:25;33.20;;;20.45;;
42364;SDS011;28498;54.400;18.566;2022-10-16T05:03:52;40.80;;;23.20;;
42364;SDS011;28498;54.400;18.566;2022-10-16T05:06:19;41.00;;;23.60;;
42364;SDS011;28498;54.400;18.566;2022-10-16T05:08:46;38.33;;;22.27;;
42364;SDS011;28498;54.400;18.566;2022-10-16T05:11:13;46.00;;;26.02;;
42364;SDS011;28498;54.400;18.566;2022-10-16T05:13:40;42.20;;;26.23;;
42364;SDS011;28498;54.400;18.566;2022-10-16T05:16:06;38.30;;;23.50;;
42364;SDS011;28498;54.400;18.566;2022-10-16T05:18:33;40.50;;;23.83;;
42364;SDS011;28498;54.400;18.566;2022-10-16T05:21:00;41.85;;;24.23;;
42364;SDS011;28498;54.400;18.566;2022-10-16T05:23:27;42.25;;;24.08;;
42364;SDS011;28498;54.400;18.566;2022-10-16T05:25:55;36.58;;;22.23;;
42364;SDS011;28498;54.400;18.566;2022-10-16T05:28:25;37.47;;;22.52;;
42364;SDS011;28498;54.400;18.566;2022-10-16T05:30:53;35.55;;;22.05;;
42364;SDS011;28498;54.400;18.566;2022-10-16T05:33:20;35.33;;;22.13;;
42364;SDS011;28498;54.400;18.566;2022-10-16T05:35:48;38.58;;;22.42;;
42364;SDS011;28498;54.400;18.566;2022-10-16T05:38:16;36.45;;;21.77;;
42364;SDS011;28498;54.400;18.566;2022-10-16T05:40:50;35.60;;;21.30;;
42364;SDS011;28498;54.400;18.566;2022-10-16T05:43:19;37.65;;;22.92;;
42364;SDS011;28498;54.400;18.566;2022-10-16T05:46:05;34.03;;;21.92;;
42364;SDS011;28498;54.400;18.566;2022-10-16T05:48:32;32.13;;;20.77;;
42364;SDS011;28498;54.400;18.566;2022-10-16T05:51:03;33.40;;;20.60;;
42364;SDS011;28498;54.400;18.566;2022-10-16T05:53:36;32.35;;;20.77;;
42364;SDS011;28498;54.400;18.566;2022-10-16T05:56:04;32.28;;;21.00;;
42364;SDS011;28498;54.400;18.566;2022-10-16T05:58:36;32.38;;;19.58;;
42364;SDS011;28498;54.400;18.566;2022-10-16T06:01:05;33.88;;;20.45;;
42364;SDS011;28498;54.400;18.566;2022-10-16T06:03:33;31.70;;;20.38;;
42364;SDS011;28498;54.400;18.566;2022-10-16T06:06:07;34.83;;;21.90;;
42364;SDS011;28498;54.400;18.566;2022-10-16T06:08:39;30.38;;;20.00;;
42364;SDS011;28498;54.400;18.566;2022-10-16T06:11:08;34.28;;;21.40;;
42364;SDS011;28498;54.400;18.566;2022-10-16T06:13:40;32.70;;;21.38;;
42364;SDS011;28498;54.400;18.566;2022-10-16T06:16:10;35.65;;;21.48;;
42364;SDS011;28498;54.400;18.566;2022-10-16T06:18:38;36.38;;;23.83;;
42364;SDS011;28498;54.400;18.566;2022-10-16T06:21:12;38.33;;;23.30;;
42364;SDS011;28498;54.400;18.566;2022-10-16T06:23:42;35.92;;;23.38;;
42364;SDS011;28498;54.400;18.566;2022-10-16T06:26:15;41.90;;;26.27;;
42364;SDS011;28498;54.400;18.566;2022-10-16T06:28:44;42.20;;;26.30;;
42364;SDS011;28498;54.400;18.566;2022-10-16T06:31:11;48.42;;;23.45;;
42364;SDS011;28498;54.400;18.566;2022-10-16T06:33:39;38.85;;;18.45;;
42364;SDS011;28498;54.400;18.566;2022-10-16T06:36:07;2.95;;;2.75;;
42364;SDS011;28498;54.400;18.566;2022-10-16T06:38:38;3.05;;;2.75;;
42364;SDS011;28498;54.400;18.566;2022-10-16T06:41:06;2.60;;;2.40;;
42364;SDS011;28498;54.400;18.566;2022-10-16T06:43:34;7.75;;;3.47;;
42364;SDS011;28498;54.400;18.566;2022-10-16T06:46:04;5.93;;;3.42;;
42364;SDS011;28498;54.400;18.566;2022-10-16T06:48:34;2.05;;;1.95;;
42364;SDS011;28498;54.400;18.566;2022-10-16T06:51:04;3.35;;;3.15;;
42364;SDS011;28498;54.400;18.566;2022-10-16T06:53:37;3.25;;;3.03;;
42364;SDS011;28498;54.400;18.566;2022-10-16T06:56:27;2.03;;;1.83;;
42364;SDS011;28498;54.400;18.566;2022-10-16T06:58:57;4.50;;;2.30;;
42364;SDS011;28498;54.400;18.566;2022-10-16T07:01:25;3.90;;;2.63;;
42364;SDS011;28498;54.400;18.566;2022-10-16T07:03:52;4.32;;;3.90;;
42364;SDS011;28498;54.400;18.566;2022-10-16T07:06:20;3.03;;;2.83;;
42364;SDS011;28498;54.400;18.566;2022-10-16T07:08:50;10.27;;;3.88;;
42364;SDS011;28498;54.400;18.566;2022-10-16T07:11:18;4.88;;;3.67;;
42364;SDS011;28498;54.400;18.566;2022-10-16T07:13:47;3.08;;;2.78;;
42364;SDS011;28498;54.400;18.566;2022-10-16T07:16:22;5.72;;;3.80;;
42364;SDS011;28498;54.400;18.566;2022-10-16T07:18:50;4.38;;;2.40;;
42364;SDS011;28498;54.400;18.566;2022-10-16T07:21:24;1.92;;;1.33;;
42364;SDS011;28498;54.400;18.566;2022-10-16T07:23:52;5.03;;;2.63;;
42364;SDS011;28498;54.400;18.566;2022-10-16T07:26:21;1.73;;;1.60;;
42364;SDS011;28498;54.400;18.566;2022-10-16T07:28:49;2.05;;;1.85;;
42364;SDS011;28498;54.400;18.566;2022-10-16T07:31:17;4.18;;;2.35;;
42364;SDS011;28498;54.400;18.566;2022-10-16T07:33:45;3.35;;;2.65;;
42364;SDS011;28498;54.400;18.566;2022-10-16T07:36:15;6.15;;;3.90;;
42364;SDS011;28498;54.400;18.566;2022-10-16T07:38:43;3.95;;;2.15;;
42364;SDS011;28498;54.400;18.566;2022-10-16T07:41:11;1.98;;;1.77;;
42364;SDS011;28498;54.400;18.566;2022-10-16T07:43:40;2.47;;;2.30;;
42364;SDS011;28498;54.400;18.566;2022-10-16T07:46:11;4.05;;;2.28;;
42364;SDS011;28498;54.400;18.566;2022-10-16T07:48:38;5.15;;;3.10;;
42364;SDS011;28498;54.400;18.566;2022-10-16T07:51:06;2.60;;;2.30;;
42364;SDS011;28498;54.400;18.566;2022-10-16T07:53:33;3.72;;;3.47;;
42364;SDS011;28498;54.400;18.566;2022-10-16T07:56:01;1.95;;;1.77;;
42364;SDS011;28498;54.400;18.566;2022-10-16T07:58:30;1.63;;;1.25;;
42364;SDS011;28498;54.400;18.566;2022-10-16T08:00:58;3.40;;;2.10;;
42364;SDS011;28498;54.400;18.566;2022-10-16T08:03:28;4.68;;;2.67;;
42364;SDS011;28498;54.400;18.566;2022-10-16T08:05:56;2.95;;;2.72;;
42364;SDS011;28498;54.400;18.566;2022-10-16T08:08:24;4.53;;;3.00;;
42364;SDS011;28498;54.400;18.566;2022-10-16T08:10:51;5.47;;;3.80;;
42364;SDS011;28498;54.400;18.566;2022-10-16T08:13:18;7.20;;;4.95;;
42364;SDS011;28498;54.400;18.566;2022-10-16T08:15:45;1.15;;;1.05;;
42364;SDS011;28498;54.400;18.566;2022-10-16T08:18:12;4.43;;;3.08;;
42364;SDS011;28498;54.400;18.566;2022-10-16T08:20:41;9.38;;;5.35;;
42364;SDS011;28498;54.400;18.566;2022-10-16T08:23:09;1.00;;;0.98;;
42364;SDS011;28498;54.400;18.566;2022-10-16T08:25:38;7.95;;;2.83;;
42364;SDS011;28498;54.400;18.566;2022-10-16T08:28:06;5.85;;;5.07;;
42364;SDS011;28498;54.400;18.566;2022-10-16T08:30:34;1.85;;;1.40;;
42364;SDS011;28498;54.400;18.566;2022-10-16T08:33:02;9.05;;;2.70;;
42364;SDS011;28498;54.400;18.566;2022-10-16T08:35:29;2.88;;;2.33;;
42364;SDS011;28498;54.400;18.566;2022-10-16T08:37:56;3.50;;;2.47;;
42364;SDS011;28498;54.400;18.566;2022-10-16T08:40:30;1.80;;;1.70;;
42364;SDS011;28498;54.400;18.566;2022-10-16T08:46:11;7.43;;;3.35;;
42364;SDS011;28498;54.400;18.566;2022-10-16T08:48:49;2.25;;;2.05;;
42364;SDS011;28498;54.400;18.566;2022-10-16T08:51:25;1.52;;;1.38;;
42364;SDS011;28498;54.400;18.566;2022-10-16T08:53:56;3.42;;;2.78;;
42364;SDS011;28498;54.400;18.566;2022-10-16T08:56:25;2.20;;;1.30;;
42364;SDS011;28498;54.400;18.566;2022-10-16T08:58:53;3.83;;;2.60;;
42364;SDS011;28498;54.400;18.566;2022-10-16T09:01:40;6.20;;;3.05;;
42364;SDS011;28498;54.400;18.566;2022-10-16T09:12:12;2.45;;;1.75;;
42364;SDS011;28498;54.400;18.566;2022-10-16T09:14:54;2.90;;;2.60;;
42364;SDS011;28498;54.400;18.566;2022-10-16T09:22:46;4.13;;;3.38;;
42364;SDS011;28498;54.400;18.566;2022-10-16T09:25:15;3.30;;;2.97;;
42364;SDS011;28498;54.400;18.566;2022-10-16T09:27:45;3.17;;;2.28;;
42364;SDS011;28498;54.400;18.566;2022-10-16T09:30:16;26.70;;;11.10;;
42364;SDS011;28498;54.400;18.566;2022-10-16T09:32:45;34.60;;;16.50;;
42364;SDS011;28498;54.400;18.566;2022-10-16T09:35:18;32.50;;;18.58;;
42364;SDS011;28498;54.400;18.566;2022-10-16T09:37:49;31.40;;;18.08;;
42364;SDS011;28498;54.400;18.566;2022-10-16T09:40:31;34.83;;;19.90;;
42364;SDS011;28498;54.400;18.566;2022-10-16T09:45:39;32.28;;;20.55;;
42364;SDS011;28498;54.400;18.566;2022-10-16T09:48:12;33.78;;;21.73;;
42364;SDS011;28498;54.400;18.566;2022-10-16T09:50:54;35.65;;;21.27;;
42364;SDS011;28498;54.400;18.566;2022-10-16T09:53:26;33.70;;;19.80;;
42364;SDS011;28498;54.400;18.566;2022-10-16T09:56:10;32.13;;;20.75;;
42364;SDS011;28498;54.400;18.566;2022-10-16T09:58:43;31.48;;;22.20;;
42364;SDS011;28498;54.400;18.566;2022-10-16T10:01:16;29.90;;;20.25;;
42364;SDS011;28498;54.400;18.566;2022-10-16T10:03:43;32.80;;;22.58;;
42364;SDS011;28498;54.400;18.566;2022-10-16T10:06:18;32.45;;;21.38;;
42364;SDS011;28498;54.400;18.566;2022-10-16T10:09:05;32.80;;;20.92;;
42364;SDS011;28498;54.400;18.566;2022-10-16T10:14:39;30.27;;;19.15;;
42364;SDS011;28498;54.400;18.566;2022-10-16T10:17:26;31.48;;;20.05;;
42364;SDS011;28498;54.400;18.566;2022-10-16T10:19:55;34.28;;;21.30;;
42364;SDS011;28498;54.400;18.566;2022-10-16T10:22:29;33.40;;;20.98;;
42364;SDS011;28498;54.400;18.566;2022-10-16T10:30:15;33.67;;;21.00;;
42364;SDS011;28498;54.400;18.566;2022-10-16T10:35:20;32.55;;;21.23;;
42364;SDS011;28498;54.400;18.566;2022-10-16T10:37:55;31.95;;;20.45;;
42364;SDS011;28498;54.400;18.566;2022-10-16T10:46:01;30.20;;;20.52;;
42364;SDS011;28498;54.400;18.566;2022-10-16T10:51:35;30.25;;;20.80;;
42364;SDS011;28498;54.400;18.566;2022-10-16T10:57:00;34.45;;;21.77;;
42364;SDS011;28498;54.400;18.566;2022-10-16T10:59:40;32.65;;;20.70;;
42364;SDS011;28498;54.400;18.566;2022-10-16T11:02:35;31.60;;;21.00;;
42364;SDS011;28498;54.400;18.566;2022-10-16T11:10:42;28.35;;;19.27;;
42364;SDS011;28498;54.400;18.566;2022-10-16T11:16:11;28.23;;;18.70;;
42364;SDS011;28498;54.400;18.566;2022-10-16T11:18:56;28.23;;;18.27;;
42364;SDS011;28498;54.400;18.566;2022-10-16T11:21:29;24.35;;;17.90;;
42364;SDS011;28498;54.400;18.566;2022-10-16T11:24:14;25.60;;;17.42;;
42364;SDS011;28498;54.400;18.566;2022-10-16T11:26:48;24.88;;;16.63;;
42364;SDS011;28498;54.400;18.566;2022-10-16T11:29:18;25.48;;;16.75;;
42364;SDS011;28498;54.400;18.566;2022-10-16T11:31:52;21.23;;;14.82;;
42364;SDS011;28498;54.400;18.566;2022-10-16T11:34:26;20.23;;;14.85;;
42364;SDS011;28498;54.400;18.566;2022-10-16T11:37:08;19.90;;;14.43;;
42364;SDS011;28498;54.400;18.566;2022-10-16T11:39:48;20.17;;;14.10;;
42364;SDS011;28498;54.400;18.566;2022-10-16T11:42:19;20.73;;;13.90;;
42364;SDS011;28498;54.400;18.566;2022-10-16T11:53:01;16.33;;;11.98;;
42364;SDS011;28498;54.400;18.566;2022-10-16T11:55:48;17.50;;;12.98;;
42364;SDS011;28498;54.400;18.566;2022-10-16T12:00:58;16.70;;;11.40;;
42364;SDS011;28498;54.400;18.566;2022-10-16T12:03:29;17.57;;;12.00;;
42364;SDS011;28498;54.400;18.566;2022-10-16T12:06:05;17.30;;;12.73;;
42364;SDS011;28498;54.400;18.566;2022-10-16T12:08:33;15.82;;;11.25;;
42364;SDS011;28498;54.400;18.566;2022-10-16T12:11:20;15.80;;;11.13;;
42364;SDS011;28498;54.400;18.566;2022-10-16T12:13:50;15.55;;;11.00;;
42364;SDS011;28498;54.400;18.566;2022-10-16T12:16:21;16.30;;;10.98;;
42364;SDS011;28498;54.400;18.566;2022-10-16T12:18:50;14.90;;;11.38;;
42364;SDS011;28498;54.400;18.566;2022-10-16T12:21:36;14.63;;;11.05;;
42364;SDS011;28498;54.400;18.566;2022-10-16T12:24:03;13.38;;;10.77;;
42364;SDS011;28498;54.400;18.566;2022-10-16T12:26:32;13.00;;;9.68;;
42364;SDS011;28498;54.400;18.566;2022-10-16T12:29:22;13.88;;;9.77;;
42364;SDS011;28498;54.400;18.566;2022-10-16T12:31:52;12.95;;;9.15;;
42364;SDS011;28498;54.400;18.566;2022-10-16T12:34:32;14.45;;;9.88;;
42364;SDS011;28498;54.400;18.566;2022-10-16T12:37:15;12.90;;;9.80;;
42364;SDS011;28498;54.400;18.566;2022-10-16T12:39:51;13.10;;;9.70;;
42364;SDS011;28498;54.400;18.566;2022-10-16T12:44:47;11.18;;;8.45;;
42364;SDS011;28498;54.400;18.566;2022-10-16T12:47:34;11.63;;;8.32;;
42364;SDS011;28498;54.400;18.566;2022-10-16T12:50:03;11.73;;;8.10;;
42364;SDS011;28498;54.400;18.566;2022-10-16T12:52:49;12.43;;;8.00;;
42364;SDS011;28498;54.400;18.566;2022-10-16T12:55:16;10.02;;;7.38;;
42364;SDS011;28498;54.400;18.566;2022-10-16T13:05:34;7.90;;;6.35;;
42364;SDS011;28498;54.400;18.566;2022-10-16T13:17:10;8.20;;;5.75;;
42364;SDS011;28498;54.400;18.566;2022-10-16T13:19:54;9.73;;;5.13;;
42364;SDS011;28498;54.400;18.566;2022-10-16T13:28:27;8.32;;;5.68;;
42364;SDS011;28498;54.400;18.566;2022-10-16T13:30:58;7.20;;;5.78;;
42364;SDS011;28498;54.400;18.566;2022-10-16T13:35:57;10.13;;;5.80;;
42364;SDS011;28498;54.400;18.566;2022-10-16T13:38:26;14.10;;;9.05;;
42364;SDS011;28498;54.400;18.566;2022-10-16T13:46:13;10.13;;;6.80;;
42364;SDS011;28498;54.400;18.566;2022-10-16T13:48:42;18.05;;;11.65;;
42364;SDS011;28498;54.400;18.566;2022-10-16T13:51:14;10.35;;;7.53;;
42364;SDS011;28498;54.400;18.566;2022-10-16T13:53:43;7.33;;;5.83;;
42364;SDS011;28498;54.400;18.566;2022-10-16T13:56:16;8.68;;;5.85;;
42364;SDS011;28498;54.400;18.566;2022-10-16T13:58:45;12.88;;;7.22;;
42364;SDS011;28498;54.400;18.566;2022-10-16T14:01:20;10.50;;;7.05;;
42364;SDS011;28498;54.400;18.566;2022-10-16T14:04:04;18.05;;;11.48;;
42364;SDS011;28498;54.400;18.566;2022-10-16T14:06:33;9.25;;;6.55;;
42364;SDS011;28498;54.400;18.566;2022-10-16T14:12:01;12.68;;;6.72;;
42364;SDS011;28498;54.400;18.566;2022-10-16T14:14:40;8.07;;;6.50;;
42364;SDS011;28498;54.400;18.566;2022-10-16T14:17:18;9.15;;;6.13;;
42364;SDS011;28498;54.400;18.566;2022-10-16T14:19:51;7.25;;;5.82;;
42364;SDS011;28498;54.400;18.566;2022-10-16T14:22:33;6.97;;;5.60;;
42364;SDS011;28498;54.400;18.566;2022-10-16T14:30:27;7.75;;;5.85;;
42364;SDS011;28498;54.400;18.566;2022-10-16T14:32:59;7.60;;;5.95;;
42364;SDS011;28498;54.400;18.566;2022-10-16T14:35:32;8.93;;;6.95;;
42364;SDS011;28498;54.400;18.566;2022-10-16T14:38:04;9.52;;;6.68;;
42364;SDS011;28498;54.400;18.566;2022-10-16T14:40:34;9.38;;;6.80;;
42364;SDS011;28498;54.400;18.566;2022-10-16T14:43:03;11.45;;;6.82;;
42364;SDS011;28498;54.400;18.566;2022-10-16T14:45:32;12.20;;;7.20;;
42364;SDS011;28498;54.400;18.566;2022-10-16T14:48:02;8.30;;;6.57;;
42364;SDS011;28498;54.400;18.566;2022-10-16T14:50:45;10.07;;;7.03;;
42364;SDS011;28498;54.400;18.566;2022-10-16T14:53:12;10.27;;;6.65;;
42364;SDS011;28498;54.400;18.566;2022-10-16T14:55:39;10.95;;;7.03;;
42364;SDS011;28498;54.400;18.566;2022-10-16T14:58:10;10.68;;;7.20;;
42364;SDS011;28498;54.400;18.566;2022-10-16T15:00:49;12.23;;;7.45;;
42364;SDS011;28498;54.400;18.566;2022-10-16T15:03:16;9.63;;;7.82;;
42364;SDS011;28498;54.400;18.566;2022-10-16T15:05:43;12.60;;;7.28;;
42364;SDS011;28498;54.400;18.566;2022-10-16T15:08:10;11.73;;;7.35;;
42364;SDS011;28498;54.400;18.566;2022-10-16T15:10:40;10.55;;;7.80;;
42364;SDS011;28498;54.400;18.566;2022-10-16T15:13:11;10.73;;;8.10;;
42364;SDS011;28498;54.400;18.566;2022-10-16T15:15:45;14.38;;;9.20;;
42364;SDS011;28498;54.400;18.566;2022-10-16T15:18:15;11.98;;;8.98;;
42364;SDS011;28498;54.400;18.566;2022-10-16T15:20:47;12.52;;;9.02;;
42364;SDS011;28498;54.400;18.566;2022-10-16T15:23:16;13.25;;;9.35;;
42364;SDS011;28498;54.400;18.566;2022-10-16T15:25:47;14.07;;;9.45;;
42364;SDS011;28498;54.400;18.566;2022-10-16T15:28:18;15.82;;;10.50;;
42364;SDS011;28498;54.400;18.566;2022-10-16T15:30:46;13.85;;;9.60;;
42364;SDS011;28498;54.400;18.566;2022-10-16T15:33:18;12.77;;;9.88;;
42364;SDS011;28498;54.400;18.566;2022-10-16T15:35:46;15.05;;;10.93;;
42364;SDS011;28498;54.400;18.566;2022-10-16T15:38:14;15.73;;;10.63;;
42364;SDS011;28498;54.400;18.566;2022-10-16T15:40:42;16.90;;;11.00;;
42364;SDS011;28498;54.400;18.566;2022-10-16T15:43:09;16.75;;;11.68;;
42364;SDS011;28498;54.400;18.566;2022-10-16T15:45:36;14.65;;;10.35;;
42364;SDS011;28498;54.400;18.566;2022-10-16T15:48:03;16.88;;;11.88;;
42364;SDS011;28498;54.400;18.566;2022-10-16T15:50:31;18.45;;;13.20;;
42364;SDS011;28498;54.400;18.566;2022-10-16T15:52:59;17.17;;;12.25;;
42364;SDS011;28498;54.400;18.566;2022-10-16T15:55:26;17.38;;;12.00;;
42364;SDS011;28498;54.400;18.566;2022-10-16T15:57:53;19.73;;;12.43;;
42364;SDS011;28498;54.400;18.566;2022-10-16T16:00:19;19.13;;;12.35;;
42364;SDS011;28498;54.400;18.566;2022-10-16T16:02:51;16.50;;;11.82;;
42364;SDS011;28498;54.400;18.566;2022-10-16T16:05:20;18.92;;;12.68;;
42364;SDS011;28498;54.400;18.566;2022-10-16T16:07:48;21.45;;;13.13;;
42364;SDS011;28498;54.400;18.566;2022-10-16T16:10:15;20.23;;;13.02;;
42364;SDS011;28498;54.400;18.566;2022-10-16T16:12:43;20.05;;;13.68;;
42364;SDS011;28498;54.400;18.566;2022-10-16T16:15:15;23.00;;;14.70;;
42364;SDS011;28498;54.400;18.566;2022-10-16T16:17:43;22.85;;;15.02;;
42364;SDS011;28498;54.400;18.566;2022-10-16T16:20:10;21.73;;;14.23;;
42364;SDS011;28498;54.400;18.566;2022-10-16T16:22:37;22.55;;;14.93;;
42364;SDS011;28498;54.400;18.566;2022-10-16T16:25:05;23.73;;;14.40;;
42364;SDS011;28498;54.400;18.566;2022-10-16T16:27:32;23.25;;;15.48;;
42364;SDS011;28498;54.400;18.566;2022-10-16T16:30:01;23.80;;;14.50;;
42364;SDS011;28498;54.400;18.566;2022-10-16T16:32:29;23.13;;;15.32;;
42364;SDS011;28498;54.400;18.566;2022-10-16T16:34:56;24.55;;;15.73;;
42364;SDS011;28498;54.400;18.566;2022-10-16T16:37:23;25.60;;;15.85;;
42364;SDS011;28498;54.400;18.566;2022-10-16T16:39:51;28.13;;;16.92;;
42364;SDS011;28498;54.400;18.566;2022-10-16T16:42:18;24.05;;;16.02;;